createdAt,value
2019-02-02T00:00:30.243Z,32.17
2019-02-02T00:02:56.175Z,36.48
2019-02-02T00:05:22.110Z,33.93
2019-02-02T00:07:47.938Z,32.17
2019-02-02T00:10:16.604Z,35.07
2019-02-02T00:12:42.406Z,35.43
2019-02-02T00:15:12.188Z,36.20
2019-02-02T00:17:38.125Z,39.73
2019-02-02T00:20:07.721Z,34.10
2019-02-02T00:22:55.440Z,32.42
2019-02-02T00:25:21.283Z,34.18
2019-02-02T00:27:47.306Z,34.63
2019-02-02T00:30:15.678Z,29.00
2019-02-02T00:32:41.535Z,38.50
2019-02-02T00:35:07.900Z,34.27
2019-02-02T00:37:33.992Z,32.75
2019-02-02T00:39:59.856Z,35.45
2019-02-02T00:42:25.936Z,41.20
2019-02-02T00:44:51.845Z,31.90
2019-02-02T00:47:17.752Z,39.93
2019-02-02T00:49:43.611Z,38.30
2019-02-02T00:52:09.441Z,31.33
2019-02-02T00:54:35.276Z,31.73
2019-02-02T00:57:01.218Z,31.37
2019-02-02T00:59:27.317Z,35.00
2019-02-02T01:01:53.173Z,26.52
2019-02-02T01:04:19.004Z,37.83
2019-02-02T01:06:44.815Z,32.60
2019-02-02T01:09:13.250Z,31.20
2019-02-02T01:11:39.466Z,38.53
2019-02-02T01:14:05.491Z,26.37
2019-02-02T01:16:31.612Z,29.65
2019-02-02T01:18:57.708Z,35.10
2019-02-02T01:21:23.700Z,29.95
2019-02-02T01:23:49.851Z,26.60
2019-02-02T01:26:15.677Z,25.77
2019-02-02T01:28:44.780Z,32.07
2019-02-02T01:31:11.497Z,34.60
2019-02-02T01:33:37.337Z,33.40
2019-02-02T01:36:03.135Z,32.80
2019-02-02T01:38:28.961Z,28.33
2019-02-02T01:40:54.923Z,25.17
2019-02-02T01:43:21.195Z,28.00
2019-02-02T01:45:50.106Z,30.37
2019-02-02T01:48:16.226Z,29.20
2019-02-02T01:50:44.847Z,27.10
2019-02-02T01:53:10.913Z,26.77
2019-02-02T01:55:39.972Z,29.63
2019-02-02T01:58:16.003Z,35.58
2019-02-02T02:00:33.766Z,27.67
2019-02-02T02:02:59.926Z,28.23
2019-02-02T02:05:29.101Z,32.13
2019-02-02T02:07:55.157Z,29.92
2019-02-02T02:10:21.374Z,33.18
2019-02-02T02:12:47.356Z,30.20
2019-02-02T02:15:15.285Z,27.53
2019-02-02T02:17:41.295Z,30.52
2019-02-02T02:20:09.557Z,32.73
2019-02-02T02:22:41.294Z,32.53
2019-02-02T02:25:07.560Z,27.65
2019-02-02T02:27:33.377Z,33.95
2019-02-02T02:29:59.243Z,30.30
2019-02-02T02:32:25.316Z,31.03
2019-02-02T02:34:51.549Z,29.18
2019-02-02T02:37:20.634Z,31.93
2019-02-02T02:39:46.716Z,28.23
2019-02-02T02:42:15.508Z,32.03
2019-02-02T02:44:41.333Z,29.92
2019-02-02T02:47:07.172Z,26.87
2019-02-02T02:49:33.279Z,26.47
2019-02-02T02:51:59.414Z,30.27
2019-02-02T02:54:25.260Z,29.02
2019-02-02T02:56:51.114Z,34.80
2019-02-02T02:59:20.010Z,37.17
2019-02-02T03:01:46.103Z,35.40
2019-02-02T03:04:15.243Z,34.33
2019-02-02T03:06:41.381Z,35.85
2019-02-02T03:09:09.983Z,32.10
2019-02-02T03:11:35.788Z,27.40
2019-02-02T03:14:04.419Z,31.37
2019-02-02T03:16:30.246Z,29.85
2019-02-02T03:21:48.474Z,26.07
2019-02-02T03:24:14.277Z,36.43
2019-02-02T03:26:40.142Z,27.67
2019-02-02T03:29:06.013Z,26.93
2019-02-02T03:31:31.819Z,25.00
2019-02-02T03:33:57.630Z,24.67
2019-02-02T03:36:23.725Z,23.33
2019-02-02T03:38:49.557Z,24.98
2019-02-02T03:41:15.674Z,27.83
2019-02-02T03:43:41.932Z,24.95
2019-02-02T03:46:08.056Z,24.30
2019-02-02T03:48:34.193Z,22.20
2019-02-02T03:51:00.004Z,27.32
2019-02-02T03:53:25.896Z,28.97
2019-02-02T03:55:52.063Z,35.30
2019-02-02T03:58:18.157Z,30.70
2019-02-02T04:00:43.987Z,32.45
2019-02-02T04:03:10.164Z,31.60
2019-02-02T04:05:36.566Z,30.02
2019-02-02T04:08:02.387Z,28.30
2019-02-02T04:10:28.203Z,29.37
2019-02-02T04:12:54.039Z,28.63
2019-02-02T04:15:20.482Z,29.30
2019-02-02T04:17:46.287Z,31.93
2019-02-02T04:20:14.419Z,30.63
2019-02-02T04:22:40.754Z,33.00
2019-02-02T04:25:07.382Z,35.15
2019-02-02T04:27:36.336Z,40.55
2019-02-02T04:30:06.237Z,55.30
2019-02-02T04:32:32.171Z,43.78
2019-02-02T04:34:58.125Z,37.13
2019-02-02T04:37:24.199Z,33.67
2019-02-02T04:39:50.041Z,29.98
2019-02-02T04:42:15.878Z,27.40
2019-02-02T04:44:41.741Z,28.83
2019-02-02T04:47:07.567Z,27.87
2019-02-02T04:49:36.565Z,50.90
2019-02-02T04:52:02.388Z,30.45
2019-02-02T04:54:31.232Z,41.43
2019-02-02T04:56:57.073Z,40.35
2019-02-02T04:59:29.369Z,53.97
2019-02-02T05:01:53.705Z,44.10
2019-02-02T05:04:19.866Z,56.70
2019-02-02T05:06:45.961Z,52.62
2019-02-02T05:09:14.679Z,102.72
2019-02-02T05:11:40.490Z,102.35
2019-02-02T05:14:06.442Z,99.77
2019-02-02T05:16:32.263Z,54.87
2019-02-02T05:18:58.125Z,271.03
2019-02-02T05:21:27.706Z,166.20
2019-02-02T05:23:53.591Z,245.90
2019-02-02T05:26:20.470Z,464.00
2019-02-02T05:28:46.311Z,191.53
2019-02-02T05:31:15.934Z,206.70
2019-02-02T05:33:41.782Z,98.72
2019-02-02T05:36:10.658Z,57.03
2019-02-02T05:38:36.771Z,139.32
2019-02-02T05:41:05.843Z,125.58
2019-02-02T05:43:31.675Z,150.95
2019-02-02T05:46:00.505Z,145.90
2019-02-02T05:48:26.351Z,253.65
2019-02-02T05:50:52.180Z,261.37
2019-02-02T05:53:18.113Z,334.40
2019-02-02T05:55:43.945Z,258.17
2019-02-02T05:58:13.151Z,283.43
2019-02-02T06:00:40.914Z,318.93
2019-02-02T06:03:06.746Z,360.57
2019-02-02T06:05:32.663Z,308.73
2019-02-02T06:08:01.883Z,197.20
2019-02-02T06:10:27.975Z,233.53
2019-02-02T06:12:56.681Z,206.40
2019-02-02T06:15:22.909Z,420.30
2019-02-02T06:17:51.904Z,48.50
2019-02-02T06:20:17.749Z,88.37
2019-02-02T06:22:45.437Z,171.80
2019-02-02T06:25:13.365Z,113.28
2019-02-02T06:27:39.185Z,341.00
2019-02-02T06:30:14.187Z,268.53
2019-02-02T06:32:39.985Z,119.45
2019-02-02T06:35:08.642Z,59.37
2019-02-02T06:37:34.450Z,156.70
2019-02-02T06:40:00.573Z,137.70
2019-02-02T06:42:26.379Z,37.63
2019-02-02T06:44:52.229Z,29.40
2019-02-02T06:47:18.044Z,26.37
2019-02-02T06:49:43.976Z,25.67
2019-02-02T06:52:09.885Z,27.17
2019-02-02T06:54:36.087Z,22.23
2019-02-02T06:57:01.881Z,22.87
2019-02-02T06:59:30.485Z,23.23
2019-02-02T07:01:56.607Z,23.25
2019-02-02T07:04:22.738Z,21.77
2019-02-02T07:06:48.636Z,20.60
2019-02-02T07:09:14.502Z,19.83
2019-02-02T07:11:43.355Z,17.50
2019-02-02T07:14:09.441Z,16.05
2019-02-02T07:16:38.314Z,15.50
2019-02-02T07:19:04.439Z,18.87
2019-02-02T07:21:31.710Z,19.45
2019-02-02T07:23:57.833Z,15.03
2019-02-02T07:26:26.653Z,18.35
2019-02-02T07:28:52.476Z,28.70
2019-02-02T07:31:21.404Z,19.63
2019-02-02T07:33:47.225Z,25.97
2019-02-02T07:36:16.809Z,22.70
2019-02-02T07:38:42.947Z,21.37
2019-02-02T07:41:08.769Z,31.37
2019-02-02T07:43:34.700Z,36.90
2019-02-02T07:46:00.541Z,50.67
2019-02-02T07:48:29.819Z,104.83
2019-02-02T07:50:55.910Z,100.95
2019-02-02T07:53:24.805Z,41.58
2019-02-02T07:55:50.881Z,37.83
2019-02-02T07:58:16.936Z,29.85
2019-02-02T08:00:42.772Z,26.62
2019-02-02T08:03:13.539Z,25.27
2019-02-02T08:05:39.366Z,26.02
2019-02-02T08:08:08.245Z,19.07
2019-02-02T08:10:34.054Z,30.27
2019-02-02T08:13:03.644Z,77.80
2019-02-02T08:15:31.533Z,179.45
2019-02-02T08:17:57.370Z,40.23
2019-02-02T08:20:23.554Z,36.67
2019-02-02T08:22:49.486Z,82.37
2019-02-02T08:25:15.444Z,59.60
2019-02-02T08:27:41.761Z,102.27
2019-02-02T08:30:29.345Z,44.25
2019-02-02T08:32:55.203Z,56.10
2019-02-02T08:35:21.435Z,184.57
2019-02-02T08:37:47.664Z,68.85
2019-02-02T08:40:15.600Z,104.25
2019-02-02T08:42:41.737Z,42.45
2019-02-02T08:45:09.017Z,48.75
2019-02-02T08:47:34.879Z,17.35
2019-02-02T08:50:00.695Z,12.77
2019-02-02T08:52:26.557Z,7.80
2019-02-02T08:54:52.613Z,7.10
2019-02-02T08:57:18.710Z,6.83
2019-02-02T08:59:44.546Z,7.70
2019-02-02T09:02:10.490Z,6.37
2019-02-02T09:04:36.401Z,18.77
2019-02-02T09:07:02.265Z,26.80
2019-02-02T09:09:28.400Z,24.50
2019-02-02T09:11:54.507Z,18.50
2019-02-02T09:14:20.329Z,23.10
2019-02-02T09:16:46.166Z,20.90
2019-02-02T09:19:12.286Z,19.97
2019-02-02T09:21:38.570Z,41.43
2019-02-02T09:24:04.361Z,29.30
2019-02-02T09:26:31.455Z,26.80
2019-02-02T09:28:57.550Z,25.23
2019-02-02T09:31:23.397Z,24.47
2019-02-02T09:33:49.214Z,22.00
2019-02-02T09:36:16.930Z,16.87
2019-02-02T09:38:45.710Z,15.00
2019-02-02T09:41:11.544Z,14.83
2019-02-02T09:43:40.707Z,22.93
2019-02-02T09:46:06.517Z,16.20
2019-02-02T09:48:35.372Z,16.93
2019-02-02T09:51:01.189Z,16.63
2019-02-02T09:53:29.988Z,11.90
2019-02-02T09:55:56.175Z,11.50
2019-02-02T09:58:22.012Z,14.97
2019-02-02T10:00:47.875Z,21.90
2019-02-02T10:03:16.989Z,20.20
2019-02-02T10:05:42.825Z,27.17
2019-02-02T10:08:12.514Z,23.50
2019-02-02T10:10:38.422Z,28.73
2019-02-02T10:13:04.673Z,26.33
2019-02-02T10:15:30.514Z,25.90
2019-02-02T10:17:56.449Z,22.03
2019-02-02T10:20:28.225Z,23.30
2019-02-02T10:22:54.857Z,21.60
2019-02-02T10:25:23.741Z,19.27
2019-02-02T10:27:49.644Z,19.40
2019-02-02T10:30:28.072Z,19.73
2019-02-02T10:32:54.249Z,15.80
2019-02-02T10:35:20.101Z,17.97
2019-02-02T10:37:45.944Z,16.73
2019-02-02T10:40:13.438Z,16.60
2019-02-02T10:42:39.348Z,15.30
2019-02-02T10:45:08.744Z,21.37
2019-02-02T10:47:34.621Z,28.40
2019-02-02T10:50:00.867Z,17.20
2019-02-02T10:52:27.050Z,13.18
2019-02-02T10:54:53.166Z,9.63
2019-02-02T10:57:19.281Z,14.85
2019-02-02T10:59:45.094Z,15.78
2019-02-02T11:02:11.225Z,11.37
2019-02-02T11:04:37.111Z,11.28
2019-02-02T11:07:03.376Z,12.30
2019-02-02T11:09:29.161Z,14.35
2019-02-02T11:11:55.047Z,12.90
2019-02-02T11:14:20.886Z,10.13
2019-02-02T11:16:49.699Z,12.20
2019-02-02T11:19:15.987Z,12.82
2019-02-02T11:21:42.357Z,10.00
2019-02-02T11:24:08.623Z,8.88
2019-02-02T11:26:34.811Z,6.80
2019-02-02T11:29:00.945Z,10.25
2019-02-02T11:31:26.739Z,9.88
2019-02-02T11:33:53.794Z,7.40
2019-02-02T11:36:19.649Z,7.17
2019-02-02T11:38:51.085Z,6.63
2019-02-02T11:41:16.920Z,5.65
2019-02-02T11:43:45.782Z,2.83
2019-02-02T11:46:11.650Z,4.33
2019-02-02T11:48:40.476Z,7.50
2019-02-02T11:51:06.331Z,8.53
2019-02-02T11:53:37.357Z,9.07
2019-02-02T11:56:03.240Z,10.70
2019-02-02T11:58:29.360Z,8.40
2019-02-02T12:00:55.214Z,10.10
2019-02-02T12:03:21.039Z,11.17
2019-02-02T12:05:46.888Z,10.27
2019-02-02T12:08:13.616Z,11.07
2019-02-02T12:10:39.451Z,10.00
2019-02-02T12:13:05.286Z,10.00
2019-02-02T12:15:36.160Z,13.50
2019-02-02T12:18:02.197Z,12.07
2019-02-02T12:20:33.357Z,13.87
2019-02-02T12:22:59.049Z,14.13
2019-02-02T12:25:25.247Z,11.23
2019-02-02T12:27:51.385Z,15.10
2019-02-02T12:30:46.176Z,11.47
2019-02-02T12:33:12.084Z,9.67
2019-02-02T12:35:37.916Z,7.83
2019-02-02T12:38:04.127Z,6.77
2019-02-02T12:40:29.965Z,7.77
2019-02-02T12:42:55.791Z,6.67
2019-02-02T12:45:25.061Z,9.77
2019-02-02T12:47:50.992Z,9.07
2019-02-02T12:50:17.166Z,10.53
2019-02-02T12:52:43.293Z,9.40
2019-02-02T12:55:10.243Z,9.53
2019-02-02T12:57:36.335Z,10.00
2019-02-02T13:00:11.786Z,10.30
2019-02-02T13:02:38.574Z,8.67
2019-02-02T13:05:06.461Z,8.00
2019-02-02T13:07:32.611Z,11.23
2019-02-02T13:09:58.425Z,11.80
2019-02-02T13:12:24.546Z,11.63
2019-02-02T13:14:50.668Z,13.27
2019-02-02T13:17:16.499Z,14.95
2019-02-02T13:19:42.352Z,11.77
2019-02-02T13:22:08.351Z,10.30
2019-02-02T13:24:34.425Z,12.27
2019-02-02T13:27:00.273Z,10.55
2019-02-02T13:29:26.114Z,12.50
2019-02-02T13:31:52.415Z,9.07
2019-02-02T13:34:18.268Z,11.00
2019-02-02T13:36:44.192Z,8.13
2019-02-02T13:39:10.323Z,12.33
2019-02-02T13:41:36.174Z,10.75
2019-02-02T13:44:02.393Z,10.20
2019-02-02T13:46:28.622Z,12.70
2019-02-02T13:48:54.470Z,11.38
2019-02-02T13:51:20.286Z,13.73
2019-02-02T13:53:46.089Z,12.20
2019-02-02T13:56:11.917Z,19.40
2019-02-02T13:58:37.988Z,14.80
2019-02-02T14:01:03.814Z,14.90
2019-02-02T14:03:30.061Z,16.10
2019-02-02T14:05:55.877Z,15.88
2019-02-02T14:08:21.730Z,20.80
2019-02-02T14:10:47.653Z,19.90
2019-02-02T14:13:13.748Z,17.50
2019-02-02T14:15:39.743Z,19.32
2019-02-02T14:18:05.980Z,22.17
2019-02-02T14:20:34.853Z,21.05
2019-02-02T14:23:00.669Z,19.23
2019-02-02T14:25:26.747Z,18.23
2019-02-02T14:27:52.612Z,18.32
2019-02-02T14:30:20.580Z,19.47
2019-02-02T14:32:46.524Z,21.73
2019-02-02T14:35:14.627Z,18.90
2019-02-02T14:37:40.689Z,16.65
2019-02-02T14:40:11.817Z,17.20
2019-02-02T14:42:37.914Z,16.55
2019-02-02T14:45:07.324Z,20.65
2019-02-02T14:47:33.167Z,22.90
2019-02-02T14:49:58.969Z,25.47
2019-02-02T14:52:25.074Z,32.10
2019-02-02T14:54:51.038Z,27.67
2019-02-02T14:57:20.136Z,19.67
2019-02-02T14:59:46.226Z,20.97
2019-02-02T15:02:12.085Z,25.12
2019-02-02T15:04:37.953Z,27.13
2019-02-02T15:07:03.783Z,17.90
2019-02-02T15:09:32.701Z,28.00
2019-02-02T15:11:58.517Z,18.05
2019-02-02T15:14:26.014Z,19.03
2019-02-02T15:16:51.842Z,21.17
2019-02-02T15:19:22.546Z,20.30
2019-02-02T15:21:48.387Z,22.67
2019-02-02T15:24:17.332Z,19.23
2019-02-02T15:26:43.301Z,22.73
2019-02-02T15:29:12.234Z,21.87
2019-02-02T15:31:38.065Z,20.70
2019-02-02T15:34:07.153Z,21.37
2019-02-02T15:36:32.981Z,25.40
2019-02-02T15:38:58.825Z,21.43
2019-02-02T15:41:24.902Z,20.10
2019-02-02T15:43:51.007Z,23.20
2019-02-02T15:46:16.837Z,28.25
2019-02-02T15:48:42.742Z,22.47
2019-02-02T15:51:11.395Z,24.50
2019-02-02T15:53:37.505Z,25.92
2019-02-02T15:56:06.355Z,23.40
2019-02-02T15:58:32.199Z,24.85
2019-02-02T16:01:01.570Z,31.47
2019-02-02T16:03:27.497Z,23.83
2019-02-02T16:05:56.093Z,22.07
2019-02-02T16:08:21.931Z,19.73
2019-02-02T16:10:51.000Z,23.40
2019-02-02T16:13:16.814Z,24.25
2019-02-02T16:15:42.637Z,21.17
2019-02-02T16:18:08.692Z,22.20
2019-02-02T16:20:36.747Z,23.42
2019-02-02T16:23:03.402Z,21.35
2019-02-02T16:25:29.474Z,25.65
2019-02-02T16:27:58.113Z,25.25
2019-02-02T16:30:29.912Z,21.70
2019-02-02T16:32:55.810Z,21.02
2019-02-02T16:35:22.028Z,23.20
2019-02-02T16:37:48.164Z,25.85
2019-02-02T16:40:27.062Z,27.07
2019-02-02T16:42:53.871Z,21.87
2019-02-02T16:45:23.012Z,24.98
2019-02-02T16:47:49.136Z,22.67
2019-02-02T16:50:16.796Z,49.20
2019-02-02T16:52:43.529Z,33.90
2019-02-02T16:55:11.851Z,24.05
2019-02-02T16:57:37.672Z,20.45
2019-02-02T17:00:07.316Z,25.07
2019-02-02T17:02:33.135Z,22.00
2019-02-02T17:04:58.950Z,19.40
2019-02-02T17:07:24.776Z,22.40
2019-02-02T17:09:50.613Z,25.30
2019-02-02T17:12:16.700Z,24.67
2019-02-02T17:14:42.658Z,22.80
2019-02-02T17:17:08.778Z,22.27
2019-02-02T17:19:34.602Z,28.60
2019-02-02T17:22:00.443Z,25.30
2019-02-02T17:24:26.276Z,26.67
2019-02-02T17:26:52.114Z,24.30
2019-02-02T17:29:17.956Z,25.57
2019-02-02T17:31:44.061Z,28.33
2019-02-02T17:34:09.903Z,29.20
2019-02-02T17:36:35.738Z,25.33
2019-02-02T17:39:01.578Z,26.13
2019-02-02T17:41:27.395Z,22.97
2019-02-02T17:43:53.228Z,25.30
2019-02-02T17:46:23.896Z,22.87
2019-02-02T17:48:49.723Z,23.32
2019-02-02T17:51:18.406Z,24.20
2019-02-02T17:53:44.507Z,24.27
2019-02-02T17:56:13.398Z,34.58
2019-02-02T17:58:40.083Z,25.50
2019-02-02T18:01:06.231Z,29.63
2019-02-02T18:03:32.033Z,29.37
2019-02-02T18:05:58.125Z,33.73
2019-02-02T18:08:23.918Z,32.55
2019-02-02T18:10:49.748Z,30.17
2019-02-02T18:13:18.895Z,30.33
2019-02-02T18:15:44.719Z,32.60
2019-02-02T18:18:12.642Z,27.93
2019-02-02T18:20:38.465Z,33.38
2019-02-02T18:23:07.478Z,32.33
2019-02-02T18:25:33.595Z,33.10
2019-02-02T18:28:03.043Z,29.48
2019-02-02T18:30:28.972Z,34.10
2019-02-02T18:32:56.265Z,33.63
2019-02-02T18:35:23.186Z,33.95
2019-02-02T18:37:51.815Z,34.73
2019-02-02T18:40:22.889Z,32.85
2019-02-02T18:42:48.941Z,31.48
2019-02-02T18:45:20.068Z,32.20
2019-02-02T18:47:45.921Z,35.80
2019-02-02T18:50:13.836Z,36.23
2019-02-02T18:52:39.750Z,37.50
2019-02-02T18:55:09.401Z,38.60
2019-02-02T18:57:35.213Z,35.68
2019-02-02T19:00:01.322Z,39.10
2019-02-02T19:02:27.510Z,36.40
2019-02-02T19:05:03.453Z,31.95
2019-02-02T19:07:21.359Z,30.40
2019-02-02T19:09:47.212Z,34.05
2019-02-02T19:12:13.044Z,30.80
2019-02-02T19:14:38.886Z,34.80
2019-02-02T19:17:04.709Z,30.70
2019-02-02T19:19:30.853Z,34.93
2019-02-02T19:21:56.705Z,28.57
2019-02-02T19:24:22.548Z,30.00
2019-02-02T19:26:48.641Z,34.73
2019-02-02T19:29:14.477Z,37.75
2019-02-02T19:31:43.359Z,32.17
2019-02-02T19:34:09.460Z,32.20
2019-02-02T19:36:38.654Z,31.00
2019-02-02T19:39:05.837Z,37.33
2019-02-02T19:41:34.754Z,41.20
2019-02-02T19:44:00.583Z,45.00
2019-02-02T19:46:29.513Z,44.00
2019-02-02T19:48:55.616Z,72.87
2019-02-02T19:51:24.421Z,71.20
2019-02-02T19:53:50.532Z,79.00
2019-02-02T19:56:16.340Z,69.07
2019-02-02T19:58:42.143Z,41.17
2019-02-02T20:01:07.991Z,52.97
2019-02-02T20:03:33.821Z,53.80
2019-02-02T20:05:59.969Z,51.10
2019-02-02T20:08:29.215Z,55.17
2019-02-02T20:10:55.140Z,69.03
2019-02-02T20:13:24.000Z,58.17
2019-02-02T20:15:49.844Z,53.05
2019-02-02T20:18:18.782Z,52.73
2019-02-02T20:20:44.898Z,52.20
2019-02-02T20:23:13.765Z,53.90
2019-02-02T20:25:39.948Z,51.70
2019-02-02T20:28:07.627Z,54.63
2019-02-02T20:30:33.607Z,57.85
2019-02-02T20:32:59.810Z,52.80
2019-02-02T20:35:26.119Z,49.00
2019-02-02T20:37:52.453Z,56.63
2019-02-02T20:40:23.321Z,47.88
2019-02-02T20:42:49.435Z,52.15
2019-02-02T20:45:22.360Z,57.75
2019-02-02T20:47:48.190Z,62.93
2019-02-02T20:50:17.774Z,48.63
2019-02-02T20:52:47.709Z,49.58
2019-02-02T20:55:33.555Z,60.23
2019-02-02T20:57:59.432Z,59.90
2019-02-02T21:00:27.237Z,56.57
2019-02-02T21:02:53.137Z,63.70
2019-02-02T21:05:18.948Z,61.27
2019-02-02T21:07:45.030Z,50.33
2019-02-02T21:10:17.088Z,52.05
2019-02-02T21:12:43.133Z,59.80
2019-02-02T21:15:10.865Z,62.50
2019-02-02T21:17:36.710Z,53.55
2019-02-02T21:20:08.922Z,57.10
2019-02-02T21:22:35.570Z,46.02
2019-02-02T21:25:02.076Z,40.63
2019-02-02T21:27:28.189Z,41.70
2019-02-02T21:29:53.993Z,38.88
2019-02-02T21:32:19.814Z,41.40
2019-02-02T21:34:45.617Z,39.50
2019-02-02T21:37:11.442Z,38.63
2019-02-02T21:39:37.256Z,40.53
2019-02-02T21:42:03.206Z,41.50
2019-02-02T21:44:29.040Z,66.07
2019-02-02T21:46:54.943Z,38.60
2019-02-02T21:49:20.759Z,42.80
2019-02-02T21:51:46.837Z,35.43
2019-02-02T21:54:12.679Z,37.65
2019-02-02T21:56:38.501Z,55.57
2019-02-02T21:59:04.613Z,59.77
2019-02-02T22:01:31.036Z,57.88
2019-02-02T22:03:56.904Z,54.40
2019-02-02T22:06:22.740Z,61.60
2019-02-02T22:08:48.825Z,64.00
2019-02-02T22:11:14.629Z,52.88
2019-02-02T22:13:40.465Z,51.90
2019-02-02T22:16:06.561Z,53.50
2019-02-02T22:18:34.206Z,59.70
2019-02-02T22:21:00.230Z,52.48
2019-02-02T22:23:28.341Z,58.45
2019-02-02T22:25:54.571Z,51.83
2019-02-02T22:28:22.677Z,55.92
2019-02-02T22:30:49.130Z,47.17
2019-02-02T22:33:15.226Z,55.83
2019-02-02T22:35:41.061Z,47.00
2019-02-02T22:38:06.994Z,53.97
2019-02-02T22:40:33.209Z,54.40
2019-02-02T22:42:59.004Z,56.77
2019-02-02T22:45:24.858Z,49.80
2019-02-02T22:47:50.704Z,48.57
2019-02-02T22:50:18.350Z,57.67
2019-02-02T22:52:44.550Z,55.80
2019-02-02T22:55:13.017Z,53.80
2019-02-02T22:57:39.111Z,45.12
2019-02-02T23:00:17.306Z,47.38
2019-02-02T23:02:43.269Z,50.58
2019-02-02T23:05:16.323Z,49.08
2019-02-02T23:07:46.004Z,44.58
2019-02-02T23:10:26.631Z,43.25
2019-02-02T23:12:56.279Z,41.83
2019-02-02T23:15:43.335Z,50.25
2019-02-02T23:18:09.432Z,45.43
2019-02-02T23:20:35.285Z,45.92
2019-02-02T23:23:01.459Z,42.80
2019-02-02T23:25:27.563Z,48.55
2019-02-02T23:27:53.803Z,55.63
2019-02-02T23:30:19.606Z,44.47
2019-02-02T23:32:45.431Z,47.30
2019-02-02T23:35:11.722Z,47.10
2019-02-02T23:37:37.937Z,42.95
2019-02-02T23:40:10.424Z,42.70
2019-02-02T23:42:36.552Z,47.35
2019-02-02T23:45:05.587Z,46.50
2019-02-02T23:47:31.438Z,52.50
2019-02-02T23:49:57.288Z,40.77
2019-02-02T23:52:23.084Z,44.10
2019-02-02T23:54:48.955Z,39.43
2019-02-02T23:57:14.870Z,50.50
2019-02-02T23:59:41.005Z,47.57
